KLBB/LBB METAR and TAF weather

Enter ICAO airport designator
Station Type Date Time Source
KLBB METAR 2018/12/12 10:53 UTC NOAA

KLBB 121053Z 31010KT 10SM SCT250 02/00 A2994 RMK AO2 SLP128 T00220000


Station Type Date Time Source
KLBB Decoded METAR 2018/12/12 10:53 UTC NOAA

LUBBOCK INTERNATIONAL AIRPORT , TX, United States (KLBB) 33-40N 101-49W 992M
Dec 12, 2018 - 05:53 AM EST / 2018.12.12 1053 UTC
Wind: from the NW (310 degrees) at 12 MPH (10 KT):0
Visibility: 10 mile(s):0
Sky conditions: partly cloudy
Temperature: 36.0 F (2.2 C)
Dew Point: 32.0 F (0.0 C)
Relative Humidity: 85%
Pressure (altimeter): 29.94 in. Hg (1013 hPa)
ob: KLBB 121053Z 31010KT 10SM SCT250 02/00 A2994 RMK AO2 SLP128 T00220000
cycle: 11

Station Type Date Time Source
KLBB TAF 2018/12/12 12:28 UTC NOAA

TAF KLBB 121126Z 1212/1312 30007KT P6SM BKN250
FM130000 22011KT P6SM SCT250
FM131100 35031G45KT P6SM BKN035


Example: see airport list